Airfield :
LOGIN :

Register | Disclaimer

   EN    FR    IT 

 










Legend :    VFR   Marginal VFR   IFR   Intensive IFR   Very Intensive IFR
Visi :
Ceiling :
>= 8 km
>= 3000ft
5 to 8 km
1000 to 3000 ft
1500m to 5 km
500 to 1000 ft
800 to 1500m
200 to 500 ft
< 800m
< 200 ft
Symbols :   Thunderstorms  Fog  Heavy snow  Heavy precipitations  Wind > 20 kt
SIGMETs :     Misc.  Thunderstorms  Icing  Turbulence  Mountain Waves  Volcanic Ashes







- Airport Elevation : 648 ft
- IATA code : INI


LYNI - Nis Constantine

CURRENT METAR :
  • 230930Z 32011KT 220V030 9999 FEW027 25/18 Q1008 NOSIG

EXPIRED METARs :
  • 230900Z 33011KT 290V010 9999 FEW027 24/18 Q1008 NOSIG
  • 230830Z 33009KT 300V020 9999 FEW027 23/18 Q1008 NOSIG
  • 230800Z VRB08KT 9999 FEW008 23/18 Q1009 NOSIG
  • 230730Z 31007KT 270V350 9999 FEW008 22/18 Q1009 NOSIG
  • 230700Z 32005KT 260V040 9999 FEW008 21/18 Q1009 NOSIG

TAF TAF LYNI
Valid from the 23 at 06:00 until the 24 at 06:00 UTC


230500Z 2306/2406 32005KT 3000 BR BKN008 TX27/2314Z TN17/2403Z
BECMG 2306/2308 9999 NSW SCT040
TEMPO 2308/2319 32015KT 3000 TSRA SCT015 SCT027CB BKN030
BECMG 2320/2322 3000 BR BKN008
TEMPO 2400/2406 0400 FG VV002
No reported NOTAMs for that airfield.



MET'MAP, your aeronautical weather chart ! - Copyright ORBIFLY December 2007 - Disclaimer

ORBIFLY MET'MAP TEAM :

Programming & Development : Alexandra Zaïnal
Concept & Development : Baudouin d'Aumeries
Co-Development & Prog : Marc-Olivier Méhu
Technical & hardware support : Manuel Goepfert

Contact : metmap@orbifly.com




SOURCES & CREDITS :

   NOAA